Dunphy, Nevada
Current Conditions -  °F | °C
As of 7:56 PM on Monday 22 Dec 2014 (Local Time) from KEKO Reporting Station
Clear Clear  
Wind Chill: 38°   Ceiling: Unl
Heat Index: 38°   Visibility: 10mi
Dew Point: 24°   Wind: 3mph
Humidity: 57%   Direction: NA
Pressure: 30.3"   Gusts: NA
Location:  40.4796°N, 116.369°W
Report Text: KEKO 230356Z AUTO VRB03KT 10SM CLR 03/M04 A3030 RMK AO2 SLP260 T00331044
Loading
Personal Weather Stations






























Interactive Weather Map New forecast layout! Learn more

10-Day Weather Forecast

Advertisements
Track Severe Weather on mobile